WZZ233 UKBB-LROP
Flight info
| Callsign | WZZ233 |
|---|---|
| Flight time | N/A |
| Altitude | 36000 |
| Route | BASOR M856 SULUM N145 LAVDA N181 NUNTA/N0453F360 DCT PIRIG/N0325F100 Y32 RAMIX DCT DENAK |
| Aircraft | A320/M-SDE3FGHIRWY/LB1 |
Departure
| Time | N/A |
|---|---|
| Airport | Boryspil International Airport (UKBB) |
Arrival
| Time | 2026-05-01 07:33 |
|---|---|
| Airport | Bucharest Henri Coandă International Airport (LROP) |
| Time | Latitude | Longitude | Altitude | Speed | Heading |
|---|---|---|---|---|---|
| 2026-05-01 07:23 | 44.97734 | 26.12325 | 14789 ft | 373 kts | 215° |
| 2026-05-01 07:23 | 44.93439 | 26.08294 | 12678 ft | 368 kts | 214° |
| 2026-05-01 07:24 | 44.91319 | 26.06311 | 11671 ft | 364 kts | 214° |
| 2026-05-01 07:24 | 44.89223 | 26.04354 | 10730 ft | 358 kts | 214° |
| 2026-05-01 07:24 | 44.87199 | 26.02463 | 10409 ft | 336 kts | 215° |
| 2026-05-01 07:24 | 44.85342 | 26.00729 | 10189 ft | 315 kts | 215° |
| 2026-05-01 07:25 | 44.83565 | 25.99071 | 9941 ft | 299 kts | 215° |
| 2026-05-01 07:25 | 44.81843 | 25.97464 | 9682 ft | 295 kts | 215° |
| 2026-05-01 07:25 | 44.80137 | 25.95872 | 9391 ft | 293 kts | 215° |
| 2026-05-01 07:25 | 44.78441 | 25.94289 | 8960 ft | 292 kts | 215° |
| 2026-05-01 07:26 | 44.76762 | 25.92719 | 8450 ft | 288 kts | 216° |
| 2026-05-01 07:26 | 44.75103 | 25.91168 | 7951 ft | 285 kts | 215° |
| 2026-05-01 07:26 | 44.73452 | 25.89631 | 7356 ft | 284 kts | 215° |
| 2026-05-01 07:26 | 44.71799 | 25.88095 | 6722 ft | 285 kts | 215° |
| 2026-05-01 07:27 | 44.70174 | 25.86589 | 6150 ft | 282 kts | 215° |
| 2026-05-01 07:27 | 44.68546 | 25.85082 | 5597 ft | 278 kts | 215° |
| 2026-05-01 07:27 | 44.66953 | 25.83606 | 5263 ft | 267 kts | 214° |
| 2026-05-01 07:27 | 44.65432 | 25.82241 | 5127 ft | 256 kts | 208° |
| 2026-05-01 07:28 | 44.63770 | 25.81380 | 4991 ft | 256 kts | 191° |
| 2026-05-01 07:28 | 44.61985 | 25.81186 | 4515 ft | 261 kts | 174° |
| 2026-05-01 07:28 | 44.60184 | 25.81542 | 3993 ft | 260 kts | 169° |
| 2026-05-01 07:28 | 44.58443 | 25.81912 | 3788 ft | 245 kts | 169° |
| 2026-05-01 07:29 | 44.56864 | 25.82453 | 3503 ft | 231 kts | 150° |
| 2026-05-01 07:29 | 44.55671 | 25.83767 | 3339 ft | 209 kts | 124° |
| 2026-05-01 07:29 | 44.55021 | 25.85489 | 3184 ft | 195 kts | 101° |
| 2026-05-01 07:29 | 44.54894 | 25.87331 | 2990 ft | 188 kts | 81° |
| 2026-05-01 07:30 | 44.55036 | 25.89154 | 2785 ft | 187 kts | 81° |
| 2026-05-01 07:30 | 44.55173 | 25.90922 | 2554 ft | 179 kts | 81° |
| 2026-05-01 07:30 | 44.55307 | 25.92639 | 2322 ft | 176 kts | 80° |
| 2026-05-01 07:30 | 44.55439 | 25.94333 | 2108 ft | 175 kts | 80° |
| 2026-05-01 07:31 | 44.55564 | 25.95970 | 1910 ft | 162 kts | 80° |
| 2026-05-01 07:31 | 44.55907 | 26.00422 | 1314 ft | 140 kts | 78° |
| 2026-05-01 07:32 | 44.56115 | 26.03064 | 943 ft | 135 kts | 81° |
| 2026-05-01 07:32 | 44.56213 | 26.04378 | 768 ft | 136 kts | 78° |
| 2026-05-01 07:33 | 44.56415 | 26.06984 | 428 ft | 133 kts | 80° |
| 2026-05-01 07:33 | 44.56516 | 26.08258 | 327 ft | 124 kts | 88° |
| 2026-05-01 07:33 | 44.56627 | 26.09793 | 320 ft | 46 kts | 83° |
| 2026-05-01 07:34 | 44.56660 | 26.10221 | 322 ft | 43 kts | 84° |
| 2026-05-01 07:34 | 44.56734 | 26.10760 | 321 ft | 13 kts | 25° |
| 2026-05-01 07:34 | 44.56805 | 26.10761 | 321 ft | 11 kts | 353° |
| 2026-05-01 07:35 | 44.56853 | 26.10754 | 321 ft | 0 kts | 353° |
| 2026-05-01 07:35 | 44.56854 | 26.10754 | 321 ft | 1 kts | 353° |
| 2026-05-01 07:35 | 44.56888 | 26.10748 | 320 ft | 9 kts | 353° |
| 2026-05-01 07:35 | 44.56932 | 26.10739 | 321 ft | 14 kts | 350° |
| 2026-05-01 07:36 | 44.57029 | 26.10650 | 320 ft | 21 kts | 301° |
| 2026-05-01 07:36 | 44.57065 | 26.10448 | 321 ft | 22 kts | 267° |
| 2026-05-01 07:36 | 44.57048 | 26.10227 | 320 ft | 24 kts | 264° |
| 2026-05-01 07:36 | 44.57030 | 26.09986 | 321 ft | 24 kts | 263° |
| 2026-05-01 07:37 | 44.56992 | 26.09502 | 321 ft | 26 kts | 264° |
| 2026-05-01 07:37 | 44.56977 | 26.09310 | 319 ft | 13 kts | 263° |
| 2026-05-01 07:37 | 44.56952 | 26.09249 | 320 ft | 7 kts | 185° |
| 2026-05-01 07:38 | 44.56916 | 26.09255 | 321 ft | 1 kts | 172° |
| 2026-05-01 07:38 | 44.56913 | 26.09256 | 321 ft | 0 kts | 173° |